Atlanticbeach, North Carolina
Current Conditions -  °F | °C
As of 11:58 AM on Friday 31 Oct 2014 (Local Time) from KMRH Reporting Station
Few Clouds Few Clouds  
Wind Chill: 18°   Ceiling: Unl
Heat Index: 18°   Visibility: 10mi
Dew Point:   Wind: 22mph
Humidity: 58%   Direction: 10°N
Pressure: 29.83"   Gusts: 28mph
Location:  34.6984°N, 76.7775°W
Report Text: KMRH 311558Z AUTO 01019G24KT 10SM FEW060 18/09 A2983 RMK AO2 SLP103 T01780094 TSNO
Loading
Personal Weather Stations






























Interactive Weather Map
Tropical Storm Tracking
New forecast layout! Learn more

10-Day Weather Forecast

Advertisements
Track Severe Weather on mobile